sensor_id;sensor_type;location;lat;lon;timestamp;P1;durP1;ratioP1;P2;durP2;ratioP2
18290;SDS011;9271;48.590;8.866;2023-10-09T00:00:32;14.40;;;4.97;;
18290;SDS011;9271;48.590;8.866;2023-10-09T00:03:15;15.43;;;5.57;;
18290;SDS011;9271;48.590;8.866;2023-10-09T00:05:42;16.70;;;5.60;;
18290;SDS011;9271;48.590;8.866;2023-10-09T00:08:12;14.23;;;4.90;;
18290;SDS011;9271;48.590;8.866;2023-10-09T00:10:42;14.47;;;5.97;;
18290;SDS011;9271;48.590;8.866;2023-10-09T00:13:18;13.97;;;6.43;;
18290;SDS011;9271;48.590;8.866;2023-10-09T00:15:44;16.73;;;5.90;;
18290;SDS011;9271;48.590;8.866;2023-10-09T00:18:17;16.43;;;5.23;;
18290;SDS011;9271;48.590;8.866;2023-10-09T00:20:48;14.87;;;5.57;;
18290;SDS011;9271;48.590;8.866;2023-10-09T00:23:20;12.43;;;6.03;;
18290;SDS011;9271;48.590;8.866;2023-10-09T00:25:50;17.00;;;6.03;;
18290;SDS011;9271;48.590;8.866;2023-10-09T00:28:34;14.87;;;5.37;;
18290;SDS011;9271;48.590;8.866;2023-10-09T00:31:03;16.53;;;5.80;;
18290;SDS011;9271;48.590;8.866;2023-10-09T00:33:33;13.33;;;5.10;;
18290;SDS011;9271;48.590;8.866;2023-10-09T00:36:03;14.50;;;5.53;;
18290;SDS011;9271;48.590;8.866;2023-10-09T00:38:35;17.20;;;5.70;;
18290;SDS011;9271;48.590;8.866;2023-10-09T00:41:04;14.23;;;5.03;;
18290;SDS011;9271;48.590;8.866;2023-10-09T00:43:38;15.00;;;5.30;;
18290;SDS011;9271;48.590;8.866;2023-10-09T00:46:08;15.40;;;5.40;;
18290;SDS011;9271;48.590;8.866;2023-10-09T00:48:41;18.43;;;5.80;;
18290;SDS011;9271;48.590;8.866;2023-10-09T00:51:09;16.07;;;5.50;;
18290;SDS011;9271;48.590;8.866;2023-10-09T00:53:43;16.17;;;5.37;;
18290;SDS011;9271;48.590;8.866;2023-10-09T00:56:14;16.00;;;5.77;;
18290;SDS011;9271;48.590;8.866;2023-10-09T00:58:47;20.47;;;5.07;;
18290;SDS011;9271;48.590;8.866;2023-10-09T01:01:20;14.80;;;4.90;;
18290;SDS011;9271;48.590;8.866;2023-10-09T01:03:53;14.27;;;5.90;;
18290;SDS011;9271;48.590;8.866;2023-10-09T01:06:21;12.37;;;5.00;;
18290;SDS011;9271;48.590;8.866;2023-10-09T01:08:53;12.10;;;4.93;;
18290;SDS011;9271;48.590;8.866;2023-10-09T01:11:33;13.90;;;5.03;;
18290;SDS011;9271;48.590;8.866;2023-10-09T01:14:08;15.03;;;5.20;;
18290;SDS011;9271;48.590;8.866;2023-10-09T01:16:38;13.33;;;5.03;;
18290;SDS011;9271;48.590;8.866;2023-10-09T01:19:07;14.80;;;5.13;;
18290;SDS011;9271;48.590;8.866;2023-10-09T01:21:45;19.57;;;5.13;;
18290;SDS011;9271;48.590;8.866;2023-10-09T01:24:13;10.87;;;5.07;;
18290;SDS011;9271;48.590;8.866;2023-10-09T01:26:41;17.93;;;5.40;;
18290;SDS011;9271;48.590;8.866;2023-10-09T01:29:11;14.13;;;4.73;;
18290;SDS011;9271;48.590;8.866;2023-10-09T01:31:41;17.10;;;5.27;;
18290;SDS011;9271;48.590;8.866;2023-10-09T01:34:12;12.17;;;5.00;;
18290;SDS011;9271;48.590;8.866;2023-10-09T01:36:39;14.30;;;5.87;;
18290;SDS011;9271;48.590;8.866;2023-10-09T01:39:07;15.67;;;5.57;;
18290;SDS011;9271;48.590;8.866;2023-10-09T01:41:36;16.60;;;4.87;;
18290;SDS011;9271;48.590;8.866;2023-10-09T01:44:11;14.20;;;4.93;;
18290;SDS011;9271;48.590;8.866;2023-10-09T01:46:41;17.67;;;5.87;;
18290;SDS011;9271;48.590;8.866;2023-10-09T01:49:07;10.63;;;4.77;;
18290;SDS011;9271;48.590;8.866;2023-10-09T01:51:42;12.67;;;4.93;;
18290;SDS011;9271;48.590;8.866;2023-10-09T01:54:08;16.50;;;5.83;;
18290;SDS011;9271;48.590;8.866;2023-10-09T01:56:43;20.67;;;5.23;;
18290;SDS011;9271;48.590;8.866;2023-10-09T01:59:11;18.40;;;4.93;;
18290;SDS011;9271;48.590;8.866;2023-10-09T02:01:40;19.17;;;5.37;;
18290;SDS011;9271;48.590;8.866;2023-10-09T02:04:12;16.97;;;5.07;;
18290;SDS011;9271;48.590;8.866;2023-10-09T02:06:42;13.83;;;5.10;;
18290;SDS011;9271;48.590;8.866;2023-10-09T02:09:08;12.17;;;4.83;;
18290;SDS011;9271;48.590;8.866;2023-10-09T02:11:46;12.40;;;5.30;;
18290;SDS011;9271;48.590;8.866;2023-10-09T02:14:13;17.07;;;5.37;;
18290;SDS011;9271;48.590;8.866;2023-10-09T02:16:45;15.37;;;5.43;;
18290;SDS011;9271;48.590;8.866;2023-10-09T02:19:28;12.77;;;5.10;;
18290;SDS011;9271;48.590;8.866;2023-10-09T02:21:58;14.73;;;5.27;;
18290;SDS011;9271;48.590;8.866;2023-10-09T02:24:27;17.70;;;5.43;;
18290;SDS011;9271;48.590;8.866;2023-10-09T02:27:16;11.50;;;4.67;;
18290;SDS011;9271;48.590;8.866;2023-10-09T02:30:05;16.23;;;5.37;;
18290;SDS011;9271;48.590;8.866;2023-10-09T02:32:41;14.23;;;4.87;;
18290;SDS011;9271;48.590;8.866;2023-10-09T02:35:09;14.60;;;5.20;;
18290;SDS011;9271;48.590;8.866;2023-10-09T02:37:45;15.23;;;5.50;;
18290;SDS011;9271;48.590;8.866;2023-10-09T02:40:12;16.47;;;5.10;;
18290;SDS011;9271;48.590;8.866;2023-10-09T02:42:49;16.23;;;5.03;;
18290;SDS011;9271;48.590;8.866;2023-10-09T02:45:16;14.17;;;5.27;;
18290;SDS011;9271;48.590;8.866;2023-10-09T02:47:43;13.83;;;5.23;;
18290;SDS011;9271;48.590;8.866;2023-10-09T02:50:13;10.17;;;5.03;;
18290;SDS011;9271;48.590;8.866;2023-10-09T02:52:46;13.37;;;5.07;;
18290;SDS011;9271;48.590;8.866;2023-10-09T02:55:17;15.47;;;4.90;;
18290;SDS011;9271;48.590;8.866;2023-10-09T02:57:52;14.67;;;4.93;;
18290;SDS011;9271;48.590;8.866;2023-10-09T03:00:30;12.03;;;4.83;;
18290;SDS011;9271;48.590;8.866;2023-10-09T03:02:58;15.40;;;5.50;;
18290;SDS011;9271;48.590;8.866;2023-10-09T03:05:24;12.90;;;4.77;;
18290;SDS011;9271;48.590;8.866;2023-10-09T03:07:52;15.03;;;5.33;;
18290;SDS011;9271;48.590;8.866;2023-10-09T03:10:19;12.27;;;5.07;;
18290;SDS011;9271;48.590;8.866;2023-10-09T03:12:47;12.13;;;4.73;;
18290;SDS011;9271;48.590;8.866;2023-10-09T03:15:17;12.33;;;5.27;;
18290;SDS011;9271;48.590;8.866;2023-10-09T03:17:45;15.03;;;5.17;;
18290;SDS011;9271;48.590;8.866;2023-10-09T03:20:12;13.80;;;5.47;;
18290;SDS011;9271;48.590;8.866;2023-10-09T03:22:42;15.30;;;5.33;;
18290;SDS011;9271;48.590;8.866;2023-10-09T03:25:11;15.80;;;5.03;;
18290;SDS011;9271;48.590;8.866;2023-10-09T03:27:39;15.37;;;5.10;;
18290;SDS011;9271;48.590;8.866;2023-10-09T03:30:10;12.17;;;4.50;;
18290;SDS011;9271;48.590;8.866;2023-10-09T03:32:43;11.97;;;4.47;;
18290;SDS011;9271;48.590;8.866;2023-10-09T03:35:15;16.23;;;5.30;;
18290;SDS011;9271;48.590;8.866;2023-10-09T03:37:49;13.17;;;4.80;;
18290;SDS011;9271;48.590;8.866;2023-10-09T03:40:17;13.10;;;5.27;;
18290;SDS011;9271;48.590;8.866;2023-10-09T03:42:44;9.87;;;4.90;;
18290;SDS011;9271;48.590;8.866;2023-10-09T03:45:11;17.47;;;5.73;;
18290;SDS011;9271;48.590;8.866;2023-10-09T03:47:50;13.23;;;4.43;;
18290;SDS011;9271;48.590;8.866;2023-10-09T03:50:22;16.83;;;5.60;;
18290;SDS011;9271;48.590;8.866;2023-10-09T03:52:51;11.33;;;5.23;;
18290;SDS011;9271;48.590;8.866;2023-10-09T03:55:20;10.27;;;4.40;;
18290;SDS011;9271;48.590;8.866;2023-10-09T03:57:47;14.30;;;5.53;;
18290;SDS011;9271;48.590;8.866;2023-10-09T04:00:14;15.53;;;5.17;;
18290;SDS011;9271;48.590;8.866;2023-10-09T04:02:42;13.27;;;5.57;;
18290;SDS011;9271;48.590;8.866;2023-10-09T04:05:10;11.20;;;5.00;;
18290;SDS011;9271;48.590;8.866;2023-10-09T04:07:36;18.83;;;5.43;;
18290;SDS011;9271;48.590;8.866;2023-10-09T04:10:03;15.40;;;5.67;;
18290;SDS011;9271;48.590;8.866;2023-10-09T04:12:55;19.53;;;5.27;;
18290;SDS011;9271;48.590;8.866;2023-10-09T04:15:23;12.63;;;5.40;;
18290;SDS011;9271;48.590;8.866;2023-10-09T04:17:50;14.03;;;5.07;;
18290;SDS011;9271;48.590;8.866;2023-10-09T04:20:18;14.70;;;5.57;;
18290;SDS011;9271;48.590;8.866;2023-10-09T04:23:03;14.23;;;5.70;;
18290;SDS011;9271;48.590;8.866;2023-10-09T04:25:31;18.73;;;5.50;;
18290;SDS011;9271;48.590;8.866;2023-10-09T04:28:07;15.53;;;5.57;;
18290;SDS011;9271;48.590;8.866;2023-10-09T04:30:35;13.60;;;5.37;;
18290;SDS011;9271;48.590;8.866;2023-10-09T04:33:05;17.13;;;5.23;;
18290;SDS011;9271;48.590;8.866;2023-10-09T04:35:54;15.37;;;5.27;;
18290;SDS011;9271;48.590;8.866;2023-10-09T04:38:35;12.87;;;5.10;;
18290;SDS011;9271;48.590;8.866;2023-10-09T04:41:04;14.27;;;5.40;;
18290;SDS011;9271;48.590;8.866;2023-10-09T04:43:32;13.93;;;5.60;;
18290;SDS011;9271;48.590;8.866;2023-10-09T04:45:58;14.60;;;5.37;;
18290;SDS011;9271;48.590;8.866;2023-10-09T04:48:37;13.27;;;5.17;;
18290;SDS011;9271;48.590;8.866;2023-10-09T04:51:06;16.73;;;6.00;;
18290;SDS011;9271;48.590;8.866;2023-10-09T04:53:58;15.57;;;6.10;;
18290;SDS011;9271;48.590;8.866;2023-10-09T04:56:37;14.97;;;5.63;;
18290;SDS011;9271;48.590;8.866;2023-10-09T04:59:16;16.50;;;5.50;;
18290;SDS011;9271;48.590;8.866;2023-10-09T05:01:45;21.20;;;5.27;;
18290;SDS011;9271;48.590;8.866;2023-10-09T05:04:22;16.67;;;5.20;;
18290;SDS011;9271;48.590;8.866;2023-10-09T05:07:07;14.80;;;5.40;;
18290;SDS011;9271;48.590;8.866;2023-10-09T05:10:00;14.93;;;5.20;;
18290;SDS011;9271;48.590;8.866;2023-10-09T05:12:34;15.13;;;5.97;;
18290;SDS011;9271;48.590;8.866;2023-10-09T05:15:06;11.87;;;5.90;;
18290;SDS011;9271;48.590;8.866;2023-10-09T05:17:34;15.83;;;6.53;;
18290;SDS011;9271;48.590;8.866;2023-10-09T05:20:01;19.33;;;6.57;;
18290;SDS011;9271;48.590;8.866;2023-10-09T05:23:00;16.17;;;6.07;;
18290;SDS011;9271;48.590;8.866;2023-10-09T05:25:48;14.27;;;6.23;;
18290;SDS011;9271;48.590;8.866;2023-10-09T05:28:20;19.63;;;6.00;;
18290;SDS011;9271;48.590;8.866;2023-10-09T05:31:13;12.97;;;5.20;;
18290;SDS011;9271;48.590;8.866;2023-10-09T05:34:02;14.40;;;6.20;;
18290;SDS011;9271;48.590;8.866;2023-10-09T05:36:31;14.00;;;5.63;;
18290;SDS011;9271;48.590;8.866;2023-10-09T05:39:00;14.37;;;5.80;;
18290;SDS011;9271;48.590;8.866;2023-10-09T05:41:42;12.70;;;5.67;;
18290;SDS011;9271;48.590;8.866;2023-10-09T05:44:17;12.27;;;5.27;;
18290;SDS011;9271;48.590;8.866;2023-10-09T05:47:02;12.23;;;5.87;;
18290;SDS011;9271;48.590;8.866;2023-10-09T05:49:54;16.67;;;5.70;;
18290;SDS011;9271;48.590;8.866;2023-10-09T05:52:20;12.00;;;5.43;;
18290;SDS011;9271;48.590;8.866;2023-10-09T05:55:18;14.50;;;5.30;;
18290;SDS011;9271;48.590;8.866;2023-10-09T05:58:03;13.47;;;5.30;;
18290;SDS011;9271;48.590;8.866;2023-10-09T06:00:47;14.77;;;5.40;;
18290;SDS011;9271;48.590;8.866;2023-10-09T06:03:46;15.43;;;5.77;;
18290;SDS011;9271;48.590;8.866;2023-10-09T06:06:18;11.90;;;5.70;;
18290;SDS011;9271;48.590;8.866;2023-10-09T06:08:59;11.70;;;5.50;;
18290;SDS011;9271;48.590;8.866;2023-10-09T06:11:44;16.07;;;6.00;;
18290;SDS011;9271;48.590;8.866;2023-10-09T06:14:16;14.90;;;5.73;;
18290;SDS011;9271;48.590;8.866;2023-10-09T06:16:50;12.57;;;5.50;;
18290;SDS011;9271;48.590;8.866;2023-10-09T06:19:26;18.13;;;5.47;;
18290;SDS011;9271;48.590;8.866;2023-10-09T06:21:53;17.63;;;6.30;;
18290;SDS011;9271;48.590;8.866;2023-10-09T06:25:05;12.40;;;5.67;;
18290;SDS011;9271;48.590;8.866;2023-10-09T06:27:34;17.07;;;5.70;;
18290;SDS011;9271;48.590;8.866;2023-10-09T06:30:23;19.10;;;5.90;;
18290;SDS011;9271;48.590;8.866;2023-10-09T06:32:49;14.47;;;6.40;;
18290;SDS011;9271;48.590;8.866;2023-10-09T06:35:22;17.47;;;6.43;;
18290;SDS011;9271;48.590;8.866;2023-10-09T06:37:55;12.47;;;5.40;;
18290;SDS011;9271;48.590;8.866;2023-10-09T06:40:40;15.77;;;5.83;;
18290;SDS011;9271;48.590;8.866;2023-10-09T06:43:30;21.63;;;5.90;;
18290;SDS011;9271;48.590;8.866;2023-10-09T06:46:02;19.17;;;6.10;;
18290;SDS011;9271;48.590;8.866;2023-10-09T06:48:46;20.47;;;6.00;;
18290;SDS011;9271;48.590;8.866;2023-10-09T06:51:22;16.90;;;6.03;;
18290;SDS011;9271;48.590;8.866;2023-10-09T06:54:03;21.83;;;6.17;;
18290;SDS011;9271;48.590;8.866;2023-10-09T06:56:32;14.13;;;5.40;;
18290;SDS011;9271;48.590;8.866;2023-10-09T06:59:13;20.67;;;5.93;;
18290;SDS011;9271;48.590;8.866;2023-10-09T07:01:47;16.83;;;5.43;;
18290;SDS011;9271;48.590;8.866;2023-10-09T07:04:36;17.57;;;5.40;;
18290;SDS011;9271;48.590;8.866;2023-10-09T07:07:12;16.43;;;5.53;;
18290;SDS011;9271;48.590;8.866;2023-10-09T07:09:41;14.97;;;5.30;;
18290;SDS011;9271;48.590;8.866;2023-10-09T07:12:28;18.60;;;5.30;;
18290;SDS011;9271;48.590;8.866;2023-10-09T07:14:57;15.60;;;4.97;;
18290;SDS011;9271;48.590;8.866;2023-10-09T07:17:50;13.63;;;5.03;;
18290;SDS011;9271;48.590;8.866;2023-10-09T07:20:17;17.70;;;5.67;;
18290;SDS011;9271;48.590;8.866;2023-10-09T07:22:58;17.70;;;5.60;;
18290;SDS011;9271;48.590;8.866;2023-10-09T07:25:38;15.80;;;5.60;;
18290;SDS011;9271;48.590;8.866;2023-10-09T07:28:20;13.43;;;5.37;;
18290;SDS011;9271;48.590;8.866;2023-10-09T07:31:07;15.63;;;5.40;;
18290;SDS011;9271;48.590;8.866;2023-10-09T07:33:50;17.27;;;5.13;;
18290;SDS011;9271;48.590;8.866;2023-10-09T07:36:21;17.83;;;5.87;;
18290;SDS011;9271;48.590;8.866;2023-10-09T07:38:59;11.73;;;5.03;;
18290;SDS011;9271;48.590;8.866;2023-10-09T07:41:30;18.40;;;5.27;;
18290;SDS011;9271;48.590;8.866;2023-10-09T07:44:03;14.87;;;5.30;;
18290;SDS011;9271;48.590;8.866;2023-10-09T07:46:45;14.83;;;4.90;;
18290;SDS011;9271;48.590;8.866;2023-10-09T07:49:39;15.53;;;5.17;;
18290;SDS011;9271;48.590;8.866;2023-10-09T07:52:05;14.83;;;5.40;;
18290;SDS011;9271;48.590;8.866;2023-10-09T07:54:32;14.50;;;5.60;;
18290;SDS011;9271;48.590;8.866;2023-10-09T07:56:59;18.80;;;5.80;;
18290;SDS011;9271;48.590;8.866;2023-10-09T07:59:34;17.27;;;5.27;;
18290;SDS011;9271;48.590;8.866;2023-10-09T08:02:06;12.60;;;5.63;;
18290;SDS011;9271;48.590;8.866;2023-10-09T08:04:39;11.80;;;4.87;;
18290;SDS011;9271;48.590;8.866;2023-10-09T08:07:14;12.90;;;4.90;;
18290;SDS011;9271;48.590;8.866;2023-10-09T08:09:44;18.30;;;6.07;;
18290;SDS011;9271;48.590;8.866;2023-10-09T08:12:14;19.37;;;5.40;;
18290;SDS011;9271;48.590;8.866;2023-10-09T08:15:00;19.37;;;5.70;;
18290;SDS011;9271;48.590;8.866;2023-10-09T08:17:41;18.90;;;5.80;;
18290;SDS011;9271;48.590;8.866;2023-10-09T08:20:14;15.90;;;5.40;;
18290;SDS011;9271;48.590;8.866;2023-10-09T08:22:42;22.63;;;6.07;;
18290;SDS011;9271;48.590;8.866;2023-10-09T08:25:09;18.77;;;6.07;;
18290;SDS011;9271;48.590;8.866;2023-10-09T08:27:51;17.10;;;5.80;;
18290;SDS011;9271;48.590;8.866;2023-10-09T08:30:22;17.53;;;5.93;;
18290;SDS011;9271;48.590;8.866;2023-10-09T08:33:06;20.80;;;6.23;;
18290;SDS011;9271;48.590;8.866;2023-10-09T08:35:48;13.20;;;5.90;;
18290;SDS011;9271;48.590;8.866;2023-10-09T08:38:16;15.27;;;6.13;;
18290;SDS011;9271;48.590;8.866;2023-10-09T08:40:48;22.27;;;6.87;;
18290;SDS011;9271;48.590;8.866;2023-10-09T08:43:16;22.47;;;6.53;;
18290;SDS011;9271;48.590;8.866;2023-10-09T08:45:45;18.50;;;5.97;;
18290;SDS011;9271;48.590;8.866;2023-10-09T08:48:12;13.53;;;5.77;;
18290;SDS011;9271;48.590;8.866;2023-10-09T08:50:41;12.50;;;5.67;;
18290;SDS011;9271;48.590;8.866;2023-10-09T08:53:10;15.10;;;5.80;;
18290;SDS011;9271;48.590;8.866;2023-10-09T08:55:38;15.83;;;6.00;;
18290;SDS011;9271;48.590;8.866;2023-10-09T08:58:05;20.37;;;5.87;;
18290;SDS011;9271;48.590;8.866;2023-10-09T09:00:35;18.23;;;5.33;;
18290;SDS011;9271;48.590;8.866;2023-10-09T09:03:07;17.17;;;5.60;;
18290;SDS011;9271;48.590;8.866;2023-10-09T09:05:34;17.43;;;5.67;;
18290;SDS011;9271;48.590;8.866;2023-10-09T09:08:01;12.13;;;4.53;;
18290;SDS011;9271;48.590;8.866;2023-10-09T09:10:30;14.90;;;4.00;;
18290;SDS011;9271;48.590;8.866;2023-10-09T09:13:02;17.57;;;5.07;;
18290;SDS011;9271;48.590;8.866;2023-10-09T09:15:29;14.60;;;4.50;;
18290;SDS011;9271;48.590;8.866;2023-10-09T09:18:03;13.90;;;4.50;;
18290;SDS011;9271;48.590;8.866;2023-10-09T09:20:31;14.53;;;4.70;;
18290;SDS011;9271;48.590;8.866;2023-10-09T09:23:02;16.77;;;5.20;;
18290;SDS011;9271;48.590;8.866;2023-10-09T09:25:40;17.83;;;5.37;;
18290;SDS011;9271;48.590;8.866;2023-10-09T09:30:49;17.40;;;5.20;;
18290;SDS011;9271;48.590;8.866;2023-10-09T09:33:17;13.33;;;4.87;;
18290;SDS011;9271;48.590;8.866;2023-10-09T09:35:58;22.70;;;5.83;;
18290;SDS011;9271;48.590;8.866;2023-10-09T09:38:27;15.87;;;4.97;;
18290;SDS011;9271;48.590;8.866;2023-10-09T09:41:01;13.33;;;5.87;;
18290;SDS011;9271;48.590;8.866;2023-10-09T09:43:32;16.87;;;5.50;;
18290;SDS011;9271;48.590;8.866;2023-10-09T09:46:00;16.10;;;5.27;;
18290;SDS011;9271;48.590;8.866;2023-10-09T09:48:32;17.00;;;5.13;;
18290;SDS011;9271;48.590;8.866;2023-10-09T09:51:04;17.73;;;5.00;;
18290;SDS011;9271;48.590;8.866;2023-10-09T09:53:33;17.13;;;5.50;;
18290;SDS011;9271;48.590;8.866;2023-10-09T09:56:02;17.47;;;5.03;;
18290;SDS011;9271;48.590;8.866;2023-10-09T09:58:30;13.33;;;4.40;;
18290;SDS011;9271;48.590;8.866;2023-10-09T10:01:07;13.30;;;4.63;;
18290;SDS011;9271;48.590;8.866;2023-10-09T10:03:42;18.17;;;5.03;;
18290;SDS011;9271;48.590;8.866;2023-10-09T10:06:13;13.10;;;4.73;;
18290;SDS011;9271;48.590;8.866;2023-10-09T10:08:44;18.07;;;5.33;;
18290;SDS011;9271;48.590;8.866;2023-10-09T10:14:11;17.00;;;4.80;;
18290;SDS011;9271;48.590;8.866;2023-10-09T10:16:59;15.87;;;5.43;;
18290;SDS011;9271;48.590;8.866;2023-10-09T10:19:41;19.13;;;5.23;;
18290;SDS011;9271;48.590;8.866;2023-10-09T10:22:26;14.70;;;4.90;;
18290;SDS011;9271;48.590;8.866;2023-10-09T10:24:55;18.33;;;5.10;;
18290;SDS011;9271;48.590;8.866;2023-10-09T10:27:24;14.43;;;4.57;;
18290;SDS011;9271;48.590;8.866;2023-10-09T10:32:59;20.23;;;5.43;;
18290;SDS011;9271;48.590;8.866;2023-10-09T10:35:34;17.03;;;5.40;;
18290;SDS011;9271;48.590;8.866;2023-10-09T10:38:22;18.87;;;5.17;;
18290;SDS011;9271;48.590;8.866;2023-10-09T10:41:07;17.60;;;4.72;;
18290;SDS011;9271;48.590;8.866;2023-10-09T10:43:39;15.73;;;4.65;;
18290;SDS011;9271;48.590;8.866;2023-10-09T10:46:24;14.75;;;4.80;;
18290;SDS011;9271;48.590;8.866;2023-10-09T10:48:59;19.95;;;5.03;;
18290;SDS011;9271;48.590;8.866;2023-10-09T10:51:40;13.25;;;5.43;;
18290;SDS011;9271;48.590;8.866;2023-10-09T10:54:19;20.02;;;6.00;;
18290;SDS011;9271;48.590;8.866;2023-10-09T10:57:17;16.98;;;5.88;;
18290;SDS011;9271;48.590;8.866;2023-10-09T10:59:46;17.95;;;6.18;;
18290;SDS011;9271;48.590;8.866;2023-10-09T11:02:14;21.88;;;5.50;;
18290;SDS011;9271;48.590;8.866;2023-10-09T11:04:53;16.45;;;5.57;;
18290;SDS011;9271;48.590;8.866;2023-10-09T11:07:39;21.65;;;6.30;;
18290;SDS011;9271;48.590;8.866;2023-10-09T11:10:07;20.65;;;6.28;;
18290;SDS011;9271;48.590;8.866;2023-10-09T11:12:44;16.40;;;5.05;;
18290;SDS011;9271;48.590;8.866;2023-10-09T11:15:33;19.33;;;5.90;;
18290;SDS011;9271;48.590;8.866;2023-10-09T11:18:21;18.98;;;5.18;;
18290;SDS011;9271;48.590;8.866;2023-10-09T11:20:51;26.55;;;6.00;;
18290;SDS011;9271;48.590;8.866;2023-10-09T11:23:43;23.15;;;6.13;;
18290;SDS011;9271;48.590;8.866;2023-10-09T11:26:22;18.85;;;5.90;;
18290;SDS011;9271;48.590;8.866;2023-10-09T11:29:05;24.92;;;5.82;;
18290;SDS011;9271;48.590;8.866;2023-10-09T11:31:58;22.27;;;5.57;;
18290;SDS011;9271;48.590;8.866;2023-10-09T11:34:25;23.58;;;5.82;;
18290;SDS011;9271;48.590;8.866;2023-10-09T11:36:56;24.25;;;6.43;;
18290;SDS011;9271;48.590;8.866;2023-10-09T11:39:23;25.95;;;6.47;;
18290;SDS011;9271;48.590;8.866;2023-10-09T11:42:03;19.98;;;6.03;;
18290;SDS011;9271;48.590;8.866;2023-10-09T11:44:39;22.50;;;6.47;;
18290;SDS011;9271;48.590;8.866;2023-10-09T11:47:11;22.85;;;5.60;;
18290;SDS011;9271;48.590;8.866;2023-10-09T11:49:49;29.98;;;5.95;;
18290;SDS011;9271;48.590;8.866;2023-10-09T11:52:35;15.95;;;5.97;;
18290;SDS011;9271;48.590;8.866;2023-10-09T11:55:03;27.10;;;6.53;;
18290;SDS011;9271;48.590;8.866;2023-10-09T11:57:32;28.40;;;6.17;;
18290;SDS011;9271;48.590;8.866;2023-10-09T12:00:00;25.43;;;6.53;;
18290;SDS011;9271;48.590;8.866;2023-10-09T12:02:37;18.90;;;5.70;;
18290;SDS011;9271;48.590;8.866;2023-10-09T12:05:09;29.43;;;6.53;;
18290;SDS011;9271;48.590;8.866;2023-10-09T12:07:42;24.10;;;6.37;;
18290;SDS011;9271;48.590;8.866;2023-10-09T12:10:09;26.83;;;5.83;;
18290;SDS011;9271;48.590;8.866;2023-10-09T12:12:38;20.17;;;5.93;;
18290;SDS011;9271;48.590;8.866;2023-10-09T12:15:05;17.57;;;5.70;;
18290;SDS011;9271;48.590;8.866;2023-10-09T12:17:39;21.57;;;5.90;;
18290;SDS011;9271;48.590;8.866;2023-10-09T12:20:09;22.80;;;5.43;;
18290;SDS011;9271;48.590;8.866;2023-10-09T12:22:39;24.73;;;6.47;;
18290;SDS011;9271;48.590;8.866;2023-10-09T12:25:07;25.80;;;5.97;;
18290;SDS011;9271;48.590;8.866;2023-10-09T12:27:34;30.30;;;5.90;;
18290;SDS011;9271;48.590;8.866;2023-10-09T12:30:01;25.20;;;6.27;;
18290;SDS011;9271;48.590;8.866;2023-10-09T12:32:28;26.07;;;5.80;;
18290;SDS011;9271;48.590;8.866;2023-10-09T12:34:56;29.10;;;6.37;;
18290;SDS011;9271;48.590;8.866;2023-10-09T12:37:23;27.53;;;6.10;;
18290;SDS011;9271;48.590;8.866;2023-10-09T12:39:49;30.50;;;6.47;;
18290;SDS011;9271;48.590;8.866;2023-10-09T12:42:20;22.07;;;5.80;;
18290;SDS011;9271;48.590;8.866;2023-10-09T12:44:47;21.30;;;6.07;;
18290;SDS011;9271;48.590;8.866;2023-10-09T12:47:14;19.87;;;5.93;;
18290;SDS011;9271;48.590;8.866;2023-10-09T12:49:43;17.10;;;5.50;;
18290;SDS011;9271;48.590;8.866;2023-10-09T12:52:11;24.15;;;6.03;;
18290;SDS011;9271;48.590;8.866;2023-10-09T12:54:42;17.63;;;5.97;;
18290;SDS011;9271;48.590;8.866;2023-10-09T12:57:11;19.58;;;5.75;;
18290;SDS011;9271;48.590;8.866;2023-10-09T12:59:39;17.60;;;5.47;;
18290;SDS011;9271;48.590;8.866;2023-10-09T13:02:10;21.52;;;5.97;;
18290;SDS011;9271;48.590;8.866;2023-10-09T13:04:38;20.45;;;5.28;;
18290;SDS011;9271;48.590;8.866;2023-10-09T13:07:07;22.27;;;5.45;;
18290;SDS011;9271;48.590;8.866;2023-10-09T13:09:35;22.13;;;5.47;;
18290;SDS011;9271;48.590;8.866;2023-10-09T13:12:07;15.38;;;5.03;;
18290;SDS011;9271;48.590;8.866;2023-10-09T13:14:34;25.48;;;5.82;;
18290;SDS011;9271;48.590;8.866;2023-10-09T13:17:00;17.77;;;5.95;;
18290;SDS011;9271;48.590;8.866;2023-10-09T13:19:33;17.92;;;5.97;;
18290;SDS011;9271;48.590;8.866;2023-10-09T13:22:00;13.27;;;5.97;;
18290;SDS011;9271;48.590;8.866;2023-10-09T13:24:28;14.27;;;5.47;;
18290;SDS011;9271;48.590;8.866;2023-10-09T13:26:57;18.30;;;5.90;;
18290;SDS011;9271;48.590;8.866;2023-10-09T13:29:24;16.38;;;5.80;;
18290;SDS011;9271;48.590;8.866;2023-10-09T13:31:52;20.15;;;6.03;;
18290;SDS011;9271;48.590;8.866;2023-10-09T13:34:23;15.93;;;5.20;;
18290;SDS011;9271;48.590;8.866;2023-10-09T13:36:53;14.02;;;5.15;;
18290;SDS011;9271;48.590;8.866;2023-10-09T13:39:20;13.95;;;6.13;;
18290;SDS011;9271;48.590;8.866;2023-10-09T13:41:49;13.57;;;6.20;;
18290;SDS011;9271;48.590;8.866;2023-10-09T13:44:24;15.13;;;6.03;;
18290;SDS011;9271;48.590;8.866;2023-10-09T13:46:52;18.50;;;6.18;;
18290;SDS011;9271;48.590;8.866;2023-10-09T13:49:20;13.95;;;6.03;;
18290;SDS011;9271;48.590;8.866;2023-10-09T13:51:47;13.10;;;5.65;;
18290;SDS011;9271;48.590;8.866;2023-10-09T13:54:15;12.98;;;5.85;;
18290;SDS011;9271;48.590;8.866;2023-10-09T13:56:46;11.43;;;5.93;;
18290;SDS011;9271;48.590;8.866;2023-10-09T13:59:17;13.40;;;5.40;;
18290;SDS011;9271;48.590;8.866;2023-10-09T14:01:47;12.68;;;5.97;;
18290;SDS011;9271;48.590;8.866;2023-10-09T14:04:14;18.15;;;6.25;;
18290;SDS011;9271;48.590;8.866;2023-10-09T14:06:43;18.13;;;5.75;;
18290;SDS011;9271;48.590;8.866;2023-10-09T14:09:11;16.50;;;6.30;;
18290;SDS011;9271;48.590;8.866;2023-10-09T14:11:53;19.05;;;6.57;;
18290;SDS011;9271;48.590;8.866;2023-10-09T14:14:31;19.35;;;6.10;;
18290;SDS011;9271;48.590;8.866;2023-10-09T14:17:00;21.48;;;6.80;;
18290;SDS011;9271;48.590;8.866;2023-10-09T14:19:27;18.88;;;6.43;;
18290;SDS011;9271;48.590;8.866;2023-10-09T14:21:58;20.67;;;6.55;;
18290;SDS011;9271;48.590;8.866;2023-10-09T14:24:25;20.13;;;6.18;;
18290;SDS011;9271;48.590;8.866;2023-10-09T14:26:57;20.25;;;6.57;;
18290;SDS011;9271;48.590;8.866;2023-10-09T14:29:28;25.05;;;6.68;;
18290;SDS011;9271;48.590;8.866;2023-10-09T14:31:55;37.10;;;8.43;;
18290;SDS011;9271;48.590;8.866;2023-10-09T14:34:27;38.13;;;7.03;;
18290;SDS011;9271;48.590;8.866;2023-10-09T14:36:57;34.87;;;7.40;;
18290;SDS011;9271;48.590;8.866;2023-10-09T14:39:25;24.33;;;7.10;;
18290;SDS011;9271;48.590;8.866;2023-10-09T14:41:52;31.53;;;7.33;;
18290;SDS011;9271;48.590;8.866;2023-10-09T14:44:19;37.23;;;7.30;;
18290;SDS011;9271;48.590;8.866;2023-10-09T14:46:48;47.88;;;8.65;;
18290;SDS011;9271;48.590;8.866;2023-10-09T14:49:15;32.85;;;7.88;;
18290;SDS011;9271;48.590;8.866;2023-10-09T14:51:47;37.97;;;7.70;;
18290;SDS011;9271;48.590;8.866;2023-10-09T14:54:15;32.50;;;7.00;;
18290;SDS011;9271;48.590;8.866;2023-10-09T14:56:43;26.70;;;7.57;;
18290;SDS011;9271;48.590;8.866;2023-10-09T14:59:10;27.20;;;7.03;;
18290;SDS011;9271;48.590;8.866;2023-10-09T15:01:37;28.05;;;7.55;;
18290;SDS011;9271;48.590;8.866;2023-10-09T15:04:04;29.55;;;7.43;;
18290;SDS011;9271;48.590;8.866;2023-10-09T15:06:32;24.20;;;6.00;;
18290;SDS011;9271;48.590;8.866;2023-10-09T15:09:01;21.77;;;6.35;;
18290;SDS011;9271;48.590;8.866;2023-10-09T15:11:33;33.65;;;7.03;;
18290;SDS011;9271;48.590;8.866;2023-10-09T15:14:03;34.20;;;6.53;;
18290;SDS011;9271;48.590;8.866;2023-10-09T15:16:31;17.80;;;6.43;;
18290;SDS011;9271;48.590;8.866;2023-10-09T15:18:58;23.70;;;6.20;;
18290;SDS011;9271;48.590;8.866;2023-10-09T15:21:27;21.50;;;6.75;;
18290;SDS011;9271;48.590;8.866;2023-10-09T15:23:57;29.00;;;7.13;;
18290;SDS011;9271;48.590;8.866;2023-10-09T15:26:25;30.00;;;6.40;;
18290;SDS011;9271;48.590;8.866;2023-10-09T15:31:34;22.15;;;6.18;;
18290;SDS011;9271;48.590;8.866;2023-10-09T15:34:00;23.08;;;6.40;;